This is the latest recevied weather packets stored in our database for station/object HS9UAC-10. If no packets are shown the sender has not sent any weather packets the latest 10 day(s).
| Time | Temp. | Humidity | Pressure | Rain* | Wind** | Luminosity | Snow |
|---|---|---|---|---|---|---|---|
| 1778027309 | 34.44° C | 88% | 1007 hPa | - | - | 0 W/m² | - |
| 1778021378 | 33.33° C | 89% | 1006 hPa | - | - | 0 W/m² | - |
| 1778020453 | 33.89° C | 86% | 1006 hPa | - | - | 0 W/m² | - |
| 1778016755 | 33.89° C | 79% | 1006 hPa | - | - | 0 W/m² | - |
| 1778014906 | 34.44° C | 76% | 1006 hPa | - | - | 0 W/m² | - |
| 1778013057 | 34.44° C | 74% | 1006 hPa | - | - | 0 W/m² | - |
| 1778009358 | 34.44° C | 73% | 1006 hPa | - | - | 0 W/m² | - |
| 1778008433 | 34.44° C | 73% | 1006 hPa | - | - | 0 W/m² | - |
| 1778007509 | 34.44° C | 72% | 1006 hPa | - | - | 0 W/m² | - |
| 1778005660 | 34.44° C | 71% | 1006 hPa | - | - | 0 W/m² | - |
| 1778001961 | 33.89° C | 77% | 1007 hPa | - | - | 0 W/m² | - |
| 1778001037 | 33.33° C | 81% | 1007 hPa | - | - | 0 W/m² | - |
| 1777999188 | 33.89° C | 79% | 1008 hPa | - | - | 0 W/m² | - |
| 1777998263 | 33.89° C | 79% | 1008 hPa | - | - | 0 W/m² | - |
| 1777997339 | 33.89° C | 76% | 1008 hPa | - | - | 0 W/m² | - |
| 1777995489 | 33.89° C | 75% | 1007 hPa | - | - | 0 W/m² | - |
| 1777994565 | 33.89° C | 75% | 1007 hPa | - | - | 0 W/m² | - |
| 1777991791 | 36.11° C | 62% | 1007 hPa | - | - | 0 W/m² | - |
| 1777990866 | 35.56° C | 63% | 1007 hPa | - | - | 0 W/m² | - |
| 1777989942 | 36.11° C | 63% | 1007 hPa | - | - | 0 W/m² | - |
| 1777988092 | 36.11° C | 64% | 1006 hPa | - | - | 0 W/m² | - |
| 1777987168 | 36.11° C | 64% | 1006 hPa | - | - | 0 W/m² | - |
| 1777984394 | 35° C | 68% | 1005 hPa | - | - | 0 W/m² | - |
| 1777981620 | 36.67° C | 60% | 1005 hPa | - | - | 0 W/m² | - |
| 1777980695 | 36.67° C | 58% | 1005 hPa | - | - | 0 W/m² | - |
* Rain since midnight (hover to see other rain measurements)
** Current wind speed in m/s (hover to see current wind gust speed)